createdAt,value
2022-09-09T00:00:41.520Z,15.50
2022-09-09T00:03:54.919Z,15.60
2022-09-09T00:06:36.360Z,15.40
2022-09-09T00:09:29.434Z,15.40
2022-09-09T00:12:26.017Z,17.20
2022-09-09T00:15:20.696Z,15.40
2022-09-09T00:18:18.154Z,17.00
2022-09-09T00:21:03.795Z,15.40
2022-09-09T00:23:40.950Z,15.40
2022-09-09T00:26:33.958Z,17.90
2022-09-09T00:29:54.833Z,15.40
2022-09-09T00:32:23.304Z,15.30
2022-09-09T00:35:23.724Z,17.50
2022-09-09T00:37:57.398Z,15.30
2022-09-09T00:40:33.890Z,17.70
2022-09-09T00:43:33.611Z,15.30
2022-09-09T00:47:08.458Z,16.80
2022-09-09T00:50:01.703Z,15.30
2022-09-09T00:53:13.616Z,15.30
2022-09-09T00:55:59.116Z,15.20
2022-09-09T00:58:26.250Z,15.20
2022-09-09T01:01:14.850Z,15.10
2022-09-09T01:03:57.125Z,15.20
2022-09-09T01:06:37.842Z,17.10
2022-09-09T01:10:01.557Z,15.20
2022-09-09T01:12:43.182Z,15.20
2022-09-09T01:15:22.594Z,15.20
2022-09-09T01:18:07.645Z,15.90
2022-09-09T01:21:21.475Z,15.10
2022-09-09T01:24:14.788Z,15.10
2022-09-09T01:27:02.142Z,15.10
2022-09-09T01:29:30.498Z,16.70
2022-09-09T01:32:24.484Z,15.10
2022-09-09T01:34:52.654Z,15.30
2022-09-09T01:37:20.506Z,15.50
2022-09-09T01:39:48.027Z,16.40
2022-09-09T01:42:18.567Z,15.90
2022-09-09T01:44:46.421Z,15.00
2022-09-09T01:47:13.523Z,15.00
2022-09-09T01:50:17.522Z,15.80
2022-09-09T01:52:58.975Z,16.10
2022-09-09T01:55:40.080Z,15.00
2022-09-09T01:58:42.937Z,17.00
2022-09-09T02:01:22.150Z,15.00
2022-09-09T02:03:56.930Z,14.90
2022-09-09T02:06:37.606Z,14.90
2022-09-09T02:09:26.545Z,14.90
2022-09-09T02:12:12.887Z,17.30
2022-09-09T02:14:59.353Z,15.80
2022-09-09T02:17:39.235Z,15.30
2022-09-09T02:20:15.633Z,14.90
2022-09-09T02:22:53.845Z,14.80
2022-09-09T02:25:28.145Z,14.80
2022-09-09T02:28:03.092Z,14.80
2022-09-09T02:30:35.297Z,15.90
2022-09-09T02:33:07.784Z,14.80
2022-09-09T02:35:53.876Z,14.80
2022-09-09T02:38:30.906Z,15.70
2022-09-09T02:41:05.035Z,16.90
2022-09-09T02:43:34.665Z,14.70
2022-09-09T02:46:27.440Z,16.10
2022-09-09T02:49:11.136Z,16.10
2022-09-09T02:52:03.715Z,17.00
2022-09-09T02:54:38.876Z,16.20
2022-09-09T02:57:22.094Z,14.70
2022-09-09T02:59:53.033Z,14.70
2022-09-09T03:02:20.619Z,16.50
2022-09-09T03:04:53.694Z,16.90
2022-09-09T03:07:22.116Z,14.80
2022-09-09T03:09:51.824Z,14.70
2022-09-09T03:12:19.077Z,15.10
2022-09-09T03:14:46.952Z,16.80
2022-09-09T03:17:14.405Z,16.20
2022-09-09T03:19:50.630Z,14.90
2022-09-09T03:22:18.053Z,14.90
2022-09-09T03:24:47.648Z,14.50
2022-09-09T03:27:18.413Z,15.00
2022-09-09T03:29:46.370Z,16.80
2022-09-09T03:32:23.528Z,15.00
2022-09-09T03:34:51.174Z,15.20
2022-09-09T03:37:19.803Z,17.30
2022-09-09T03:39:49.660Z,15.00
2022-09-09T03:42:19.665Z,15.00
2022-09-09T03:44:51.089Z,16.70
2022-09-09T03:47:22.571Z,15.20
2022-09-09T03:49:52.094Z,17.50
2022-09-09T03:52:23.406Z,16.40
2022-09-09T03:54:51.795Z,15.10
2022-09-09T03:57:18.933Z,17.10
2022-09-09T03:59:46.078Z,15.10
2022-09-09T04:02:13.354Z,15.20
2022-09-09T04:04:40.612Z,16.30
2022-09-09T04:07:07.938Z,15.20
2022-09-09T04:09:35.844Z,17.40
2022-09-09T04:12:03.685Z,15.20
2022-09-09T04:14:31.563Z,15.20
2022-09-09T04:17:01.238Z,18.00
2022-09-09T04:19:28.243Z,15.30
2022-09-09T04:21:55.154Z,15.30
2022-09-09T04:24:23.550Z,17.10
2022-09-09T04:26:51.022Z,15.40
2022-09-09T04:29:18.342Z,15.40
2022-09-09T04:31:45.599Z,15.40
2022-09-09T04:34:13.581Z,16.40
2022-09-09T04:36:41.425Z,15.50
2022-09-09T04:39:09.684Z,15.50
2022-09-09T04:41:36.645Z,15.50
2022-09-09T04:44:06.762Z,13.80
2022-09-09T04:46:35.313Z,15.50
2022-09-09T04:49:02.275Z,15.40
2022-09-09T04:51:32.378Z,15.50
2022-09-09T04:53:59.836Z,15.50
2022-09-09T04:56:30.177Z,16.90
2022-09-09T04:59:01.199Z,17.90
2022-09-09T05:01:37.859Z,16.70
2022-09-09T05:04:06.050Z,15.60
2022-09-09T05:06:34.629Z,15.70
2022-09-09T05:09:02.670Z,15.60
2022-09-09T05:11:37.038Z,17.20
2022-09-09T05:14:13.156Z,15.70
2022-09-09T05:16:40.782Z,18.00
2022-09-09T05:19:09.196Z,17.00
2022-09-09T05:21:48.486Z,18.10
2022-09-09T05:24:18.612Z,15.70
2022-09-09T05:26:47.338Z,18.10
2022-09-09T05:29:14.256Z,15.70
2022-09-09T05:31:42.433Z,18.20
2022-09-09T05:34:13.399Z,16.80
2022-09-09T05:36:40.421Z,15.80
2022-09-09T05:39:07.396Z,18.00
2022-09-09T05:41:36.772Z,15.80
2022-09-09T05:44:04.497Z,18.00
2022-09-09T05:46:36.635Z,18.60
2022-09-09T05:49:06.511Z,16.30
2022-09-09T05:51:35.404Z,16.00
2022-09-09T05:54:07.615Z,17.50
2022-09-09T05:56:38.805Z,16.20
2022-09-09T05:59:08.636Z,13.80
2022-09-09T06:01:41.491Z,16.90
2022-09-09T06:04:11.099Z,16.20
2022-09-09T06:06:40.913Z,16.20
2022-09-09T06:09:14.552Z,17.10
2022-09-09T06:11:43.937Z,17.60
2022-09-09T06:14:13.968Z,16.50
2022-09-09T06:16:44.146Z,16.60
2022-09-09T06:19:18.517Z,18.60
2022-09-09T06:21:45.747Z,16.80
2022-09-09T06:24:14.897Z,17.80
2022-09-09T06:26:42.701Z,17.20
2022-09-09T06:29:13.192Z,14.90
2022-09-09T06:31:42.317Z,17.30
2022-09-09T06:34:16.217Z,17.50
2022-09-09T06:37:12.738Z,17.50
2022-09-09T06:40:04.754Z,17.50
2022-09-09T06:42:32.596Z,16.70
2022-09-09T06:45:21.926Z,18.70
2022-09-09T06:47:57.317Z,18.70
2022-09-09T06:50:25.064Z,20.50
2022-09-09T06:52:52.674Z,17.70
2022-09-09T06:55:19.882Z,19.70
2022-09-09T06:57:47.224Z,17.80
2022-09-09T07:00:19.240Z,18.30
2022-09-09T07:02:46.356Z,18.00
2022-09-09T07:05:14.246Z,18.10
2022-09-09T07:07:43.169Z,18.20
2022-09-09T07:10:12.246Z,20.00
2022-09-09T07:12:40.470Z,18.40
2022-09-09T07:15:11.046Z,18.60
2022-09-09T07:17:41.654Z,18.70
2022-09-09T07:20:09.015Z,18.90
2022-09-09T07:22:36.369Z,19.00
2022-09-09T07:25:06.605Z,19.10
2022-09-09T07:27:35.487Z,19.30
2022-09-09T07:30:03.860Z,18.30
2022-09-09T07:32:35.339Z,19.50
2022-09-09T07:35:02.390Z,19.60
2022-09-09T07:37:36.932Z,19.70
2022-09-09T07:40:06.288Z,19.70
2022-09-09T07:42:34.996Z,19.80
2022-09-09T07:45:02.038Z,19.80
2022-09-09T07:47:29.398Z,19.90
2022-09-09T07:49:57.034Z,20.00
2022-09-09T07:52:30.372Z,20.00
2022-09-09T07:55:04.081Z,20.00
2022-09-09T07:57:31.790Z,20.00
2022-09-09T07:59:59.017Z,20.10
2022-09-09T08:02:29.012Z,20.20
2022-09-09T08:04:57.638Z,20.30
2022-09-09T08:07:25.471Z,20.40
2022-09-09T08:09:56.600Z,22.50
2022-09-09T08:12:28.576Z,20.70
2022-09-09T08:14:56.771Z,22.90
2022-09-09T08:17:26.756Z,20.90
2022-09-09T08:19:55.135Z,21.00
2022-09-09T08:22:26.163Z,21.00
2022-09-09T08:24:53.169Z,21.10
2022-09-09T08:27:20.381Z,21.60
2022-09-09T08:29:48.079Z,21.20
2022-09-09T08:32:15.369Z,21.10
2022-09-09T08:34:46.569Z,22.10
2022-09-09T08:37:21.389Z,21.40
2022-09-09T08:39:54.045Z,21.50
2022-09-09T08:42:50.528Z,21.80
2022-09-09T08:46:02.865Z,21.50
2022-09-09T08:48:45.177Z,21.40
2022-09-09T08:51:13.874Z,21.40
2022-09-09T08:53:50.261Z,21.40
2022-09-09T08:56:24.628Z,22.00
2022-09-09T08:58:58.090Z,21.40
2022-09-09T09:02:03.585Z,23.20
2022-09-09T09:05:10.704Z,21.40
2022-09-09T09:08:15.614Z,21.40
2022-09-09T09:10:58.012Z,21.40
2022-09-09T09:13:54.840Z,21.40
2022-09-09T09:16:41.158Z,21.40
2022-09-09T09:19:16.644Z,21.60
2022-09-09T09:22:46.319Z,21.30
2022-09-09T09:25:20.738Z,21.40
2022-09-09T09:28:29.846Z,21.30
2022-09-09T09:31:12.633Z,21.30
2022-09-09T09:33:54.051Z,23.30
2022-09-09T09:36:47.127Z,21.40
2022-09-09T09:42:17.113Z,21.70
2022-09-09T09:44:48.617Z,21.80
2022-09-09T09:47:24.486Z,21.90
2022-09-09T09:50:21.414Z,22.00
2022-09-09T09:53:01.640Z,22.00
2022-09-09T09:55:34.492Z,23.20
2022-09-09T09:58:07.164Z,22.00
2022-09-09T10:00:38.503Z,21.90
2022-09-09T10:03:33.548Z,21.80
2022-09-09T10:06:02.138Z,21.70
2022-09-09T10:08:29.463Z,21.50
2022-09-09T10:11:41.175Z,21.30
2022-09-09T10:14:55.603Z,21.30
2022-09-09T10:17:35.499Z,21.10
2022-09-09T10:20:32.180Z,21.00
2022-09-09T10:23:26.768Z,20.90
2022-09-09T10:26:30.224Z,20.80
2022-09-09T10:29:53.759Z,20.60
2022-09-09T10:32:41.612Z,20.50
2022-09-09T10:35:40.622Z,21.00
2022-09-09T10:38:44.723Z,20.20
2022-09-09T10:41:21.316Z,20.10
2022-09-09T10:44:01.846Z,20.10
2022-09-09T10:47:17.263Z,20.10
2022-09-09T10:50:07.190Z,20.20
2022-09-09T10:53:10.569Z,20.30
2022-09-09T10:55:46.635Z,20.40
2022-09-09T10:58:35.399Z,20.60
2022-09-09T11:01:22.273Z,20.80
2022-09-09T11:04:06.588Z,20.90
2022-09-09T11:06:43.502Z,21.70
2022-09-09T11:09:19.259Z,21.00
2022-09-09T11:12:00.669Z,21.10
2022-09-09T11:14:53.287Z,21.20
2022-09-09T11:17:38.273Z,21.30
2022-09-09T11:20:08.199Z,21.40
2022-09-09T11:22:49.411Z,21.60
2022-09-09T11:25:31.821Z,22.00
2022-09-09T11:28:27.846Z,21.80
2022-09-09T11:31:15.910Z,22.00
2022-09-09T11:34:09.581Z,21.90
2022-09-09T11:37:13.441Z,22.10
2022-09-09T11:40:18.847Z,22.10
2022-09-09T11:42:49.098Z,22.10
2022-09-09T11:45:29.709Z,22.10
2022-09-09T11:48:00.443Z,21.90
2022-09-09T11:50:31.351Z,21.80
2022-09-09T11:53:22.207Z,21.70
2022-09-09T11:56:11.925Z,22.60
2022-09-09T11:58:54.474Z,21.40
2022-09-09T12:01:37.381Z,21.20
2022-09-09T12:04:09.832Z,21.10
2022-09-09T12:06:47.192Z,21.10
2022-09-09T12:09:26.337Z,22.10
2022-09-09T12:11:53.733Z,22.20
2022-09-09T12:14:38.840Z,21.40
2022-09-09T12:17:17.555Z,21.50
2022-09-09T12:19:44.529Z,21.70
2022-09-09T12:22:50.607Z,21.90
2022-09-09T12:25:54.432Z,22.00
2022-09-09T12:28:41.749Z,22.20
2022-09-09T12:31:31.642Z,22.30
2022-09-09T12:34:32.769Z,24.10
2022-09-09T12:37:20.341Z,22.40
2022-09-09T12:40:21.637Z,22.50
2022-09-09T12:42:48.970Z,22.40
2022-09-09T12:45:28.597Z,22.40
2022-09-09T12:48:16.675Z,22.30
2022-09-09T12:50:50.792Z,22.20
2022-09-09T12:53:39.821Z,22.90
2022-09-09T12:56:22.090Z,22.10
2022-09-09T12:58:52.953Z,22.00
2022-09-09T13:01:29.300Z,23.40
2022-09-09T13:03:57.575Z,22.10
2022-09-09T13:06:33.191Z,22.20
2022-09-09T13:09:03.145Z,22.30
2022-09-09T13:11:37.339Z,24.50
2022-09-09T13:14:05.440Z,22.70
2022-09-09T13:16:42.542Z,23.00
2022-09-09T13:19:16.975Z,23.20
2022-09-09T13:21:44.649Z,23.30
2022-09-09T13:24:41.106Z,23.50
2022-09-09T13:27:35.264Z,23.60
2022-09-09T13:30:03.049Z,23.60
2022-09-09T13:32:30.066Z,23.70
2022-09-09T13:35:01.259Z,23.70
2022-09-09T13:37:42.373Z,24.80
2022-09-09T13:40:22.707Z,22.00
2022-09-09T13:42:57.252Z,23.40
2022-09-09T13:45:27.756Z,24.30
2022-09-09T13:47:56.551Z,23.00
2022-09-09T13:50:30.240Z,22.90
2022-09-09T13:53:00.188Z,22.90
2022-09-09T13:55:30.693Z,23.00
2022-09-09T13:58:04.450Z,23.10
2022-09-09T14:00:35.353Z,23.40
2022-09-09T14:03:05.428Z,23.50
2022-09-09T14:05:35.086Z,23.60
2022-09-09T14:08:05.246Z,23.70
2022-09-09T14:10:34.543Z,23.70
2022-09-09T14:13:02.380Z,23.60
2022-09-09T14:15:29.978Z,23.40
2022-09-09T14:17:57.145Z,23.30
2022-09-09T14:20:24.021Z,23.40
2022-09-09T14:22:51.080Z,22.90
2022-09-09T14:25:18.394Z,22.70
2022-09-09T14:27:46.890Z,22.60
2022-09-09T14:30:13.892Z,24.40
2022-09-09T14:32:40.906Z,22.80
2022-09-09T14:35:08.420Z,23.00
2022-09-09T14:37:35.765Z,23.30
2022-09-09T14:40:03.112Z,23.60
2022-09-09T14:42:31.188Z,23.80
2022-09-09T14:44:58.241Z,24.20
2022-09-09T14:47:25.313Z,24.00
2022-09-09T14:49:52.943Z,24.20
2022-09-09T14:52:19.865Z,24.30
2022-09-09T14:54:47.358Z,24.50
2022-09-09T14:57:14.278Z,24.60
2022-09-09T14:59:41.231Z,24.80
2022-09-09T15:02:12.545Z,26.60
2022-09-09T15:04:39.517Z,26.90
2022-09-09T15:07:06.422Z,25.00
2022-09-09T15:09:34.315Z,25.10
2022-09-09T15:12:02.256Z,25.20
2022-09-09T15:14:29.225Z,24.60
2022-09-09T15:16:56.164Z,25.50
2022-09-09T15:19:23.263Z,25.60
2022-09-09T15:21:50.247Z,25.70
2022-09-09T15:24:17.961Z,26.60
2022-09-09T15:26:45.220Z,26.00
2022-09-09T15:29:12.365Z,27.00
2022-09-09T15:31:39.323Z,25.90
2022-09-09T15:34:08.438Z,25.70
2022-09-09T15:36:41.296Z,25.60
2022-09-09T15:39:16.476Z,25.20
2022-09-09T15:41:49.529Z,25.00
2022-09-09T15:44:17.060Z,24.80
2022-09-09T15:46:51.472Z,24.30
2022-09-09T15:49:23.476Z,23.80
2022-09-09T15:51:58.894Z,23.50
2022-09-09T15:54:27.629Z,21.30
2022-09-09T15:56:59.065Z,22.90
2022-09-09T15:59:30.210Z,22.70
2022-09-09T16:02:00.203Z,23.40
2022-09-09T16:04:29.864Z,22.20
2022-09-09T16:07:02.364Z,22.10
2022-09-09T16:09:30.845Z,23.00
2022-09-09T16:12:01.847Z,21.70
2022-09-09T16:14:29.943Z,23.60
2022-09-09T16:16:57.980Z,21.50
2022-09-09T16:19:25.183Z,22.30
2022-09-09T16:21:52.222Z,21.30
2022-09-09T16:24:21.067Z,21.10
2022-09-09T16:26:51.868Z,21.00
2022-09-09T16:29:20.491Z,20.80
2022-09-09T16:31:51.054Z,23.10
2022-09-09T16:34:19.621Z,20.40
2022-09-09T16:36:49.282Z,22.30
2022-09-09T16:39:21.134Z,20.00
2022-09-09T16:41:49.835Z,19.70
2022-09-09T16:44:19.692Z,19.50
2022-09-09T16:47:00.386Z,19.80
2022-09-09T16:49:31.681Z,20.20
2022-09-09T16:52:02.125Z,18.70
2022-09-09T16:54:30.344Z,18.40
2022-09-09T16:57:00.506Z,18.30
2022-09-09T16:59:27.646Z,18.20
2022-09-09T17:01:55.355Z,18.90
2022-09-09T17:04:28.894Z,20.40
2022-09-09T17:07:21.899Z,19.10
2022-09-09T17:09:49.036Z,17.80
2022-09-09T17:12:17.157Z,19.80
2022-09-09T17:14:46.576Z,18.20
2022-09-09T17:17:30.695Z,15.40
2022-09-09T17:19:58.931Z,17.60
2022-09-09T17:22:29.637Z,17.50
2022-09-09T17:24:56.661Z,17.50
2022-09-09T17:27:23.500Z,18.20
2022-09-09T17:29:50.412Z,19.30
2022-09-09T17:32:17.213Z,17.60
2022-09-09T17:34:44.217Z,17.70
2022-09-09T17:37:11.163Z,17.80
2022-09-09T17:39:38.150Z,19.00
2022-09-09T17:42:05.366Z,20.00
2022-09-09T17:44:33.544Z,17.90
2022-09-09T17:47:01.331Z,16.80
2022-09-09T17:49:28.441Z,17.90
2022-09-09T17:51:56.138Z,18.00
2022-09-09T17:54:23.257Z,18.00
2022-09-09T17:56:50.611Z,18.20
2022-09-09T17:59:19.256Z,18.50
2022-09-09T18:01:50.247Z,18.10
2022-09-09T18:04:17.961Z,18.00
2022-09-09T18:06:48.871Z,18.00
2022-09-09T18:09:23.816Z,18.40
2022-09-09T18:11:55.667Z,19.30
2022-09-09T18:14:31.924Z,17.90
2022-09-09T18:17:01.692Z,19.40
2022-09-09T18:19:31.825Z,17.80
2022-09-09T18:22:02.842Z,17.70
2022-09-09T18:24:31.054Z,19.00
2022-09-09T18:26:58.515Z,17.70
2022-09-09T18:29:26.280Z,18.90
2022-09-09T18:31:55.476Z,18.20
2022-09-09T18:34:25.786Z,17.50
2022-09-09T18:36:56.152Z,17.50
2022-09-09T18:39:27.889Z,18.00
2022-09-09T18:42:00.361Z,17.40
2022-09-09T18:44:31.466Z,17.90
2022-09-09T18:46:59.709Z,17.40
2022-09-09T18:49:27.094Z,18.40
2022-09-09T18:51:54.056Z,17.40
2022-09-09T18:54:26.163Z,18.70
2022-09-09T18:56:55.873Z,17.40
2022-09-09T18:59:24.564Z,17.40
2022-09-09T19:01:54.740Z,18.90
2022-09-09T19:04:25.260Z,19.50
2022-09-09T19:06:58.349Z,17.40
2022-09-09T19:09:31.396Z,19.50
2022-09-09T19:12:00.589Z,17.50
2022-09-09T19:14:28.045Z,17.50
2022-09-09T19:16:55.943Z,17.50
2022-09-09T19:19:28.686Z,17.80
2022-09-09T19:21:57.354Z,17.50
2022-09-09T19:24:39.087Z,17.50
2022-09-09T19:27:07.385Z,17.50
2022-09-09T19:29:39.350Z,17.50
2022-09-09T19:34:53.403Z,18.10
2022-09-09T19:37:20.825Z,17.50
2022-09-09T19:39:49.662Z,16.70
2022-09-09T19:42:16.835Z,17.60
2022-09-09T19:44:43.930Z,17.60
2022-09-09T19:47:10.995Z,18.60
2022-09-09T19:49:38.526Z,17.60
2022-09-09T19:52:05.408Z,17.60
2022-09-09T19:54:34.104Z,17.60
2022-09-09T19:57:01.320Z,17.70
2022-09-09T19:59:28.938Z,18.50
2022-09-09T20:01:56.856Z,17.60
2022-09-09T20:04:24.157Z,17.60
2022-09-09T20:06:52.051Z,17.60
2022-09-09T20:09:20.403Z,19.00
2022-09-09T20:11:49.094Z,17.60
2022-09-09T20:14:18.168Z,17.50
2022-09-09T20:16:46.633Z,17.60
2022-09-09T20:19:16.471Z,19.20
2022-09-09T20:21:49.611Z,17.70
2022-09-09T20:24:23.180Z,19.80
2022-09-09T20:26:50.615Z,17.90
2022-09-09T20:29:20.096Z,17.50
2022-09-09T20:31:48.598Z,17.40
2022-09-09T20:34:19.550Z,17.80
2022-09-09T20:36:47.358Z,17.40
2022-09-09T20:39:20.464Z,18.10
2022-09-09T20:41:48.676Z,17.40
2022-09-09T20:44:18.981Z,17.40
2022-09-09T20:46:49.511Z,17.40
2022-09-09T20:49:19.943Z,17.40
2022-09-09T20:51:50.417Z,19.50
2022-09-09T20:54:24.146Z,17.40
2022-09-09T20:56:53.428Z,17.40
2022-09-09T20:59:27.249Z,18.30
2022-09-09T21:01:56.940Z,17.40
2022-09-09T21:04:25.070Z,17.40
2022-09-09T21:06:52.356Z,17.50
2022-09-09T21:09:23.068Z,17.40
2022-09-09T21:11:50.685Z,17.40
2022-09-09T21:14:17.734Z,17.40
2022-09-09T21:16:45.773Z,17.40
2022-09-09T21:19:12.754Z,18.80
2022-09-09T21:21:40.119Z,17.40
2022-09-09T21:24:07.250Z,17.30
2022-09-09T21:26:35.462Z,17.30
2022-09-09T21:29:02.398Z,17.30
2022-09-09T21:31:29.490Z,17.20
2022-09-09T21:34:01.027Z,18.80
2022-09-09T21:36:28.499Z,17.20
2022-09-09T21:38:56.806Z,17.10
2022-09-09T21:41:23.806Z,19.10
2022-09-09T21:43:54.247Z,17.00
2022-09-09T21:46:23.157Z,17.10
2022-09-09T21:48:50.705Z,18.40
2022-09-09T21:51:19.942Z,17.50
2022-09-09T21:53:46.850Z,16.90
2022-09-09T21:56:18.945Z,17.90
2022-09-09T21:58:47.139Z,16.90
2022-09-09T22:01:21.310Z,16.90
2022-09-09T22:03:48.232Z,16.80
2022-09-09T22:06:18.625Z,17.90
2022-09-09T22:08:46.763Z,16.90
2022-09-09T22:11:20.597Z,16.80
2022-09-09T22:13:48.811Z,17.40
2022-09-09T22:16:20.669Z,18.30
2022-09-09T22:18:57.666Z,16.70
2022-09-09T22:21:29.023Z,16.70
2022-09-09T22:24:03.565Z,16.70
2022-09-09T22:26:35.167Z,16.60
2022-09-09T22:29:04.863Z,19.50
2022-09-09T22:31:33.479Z,16.60
2022-09-09T22:34:00.449Z,17.80
2022-09-09T22:36:27.457Z,16.50
2022-09-09T22:38:55.973Z,16.50
2022-09-09T22:41:23.787Z,16.50
2022-09-09T22:43:51.229Z,16.40
2022-09-09T22:46:18.844Z,17.50
2022-09-09T22:48:45.966Z,16.40
2022-09-09T22:51:15.514Z,18.00
2022-09-09T22:53:44.731Z,16.40
2022-09-09T22:56:17.579Z,18.20
2022-09-09T22:58:46.349Z,18.10
2022-09-09T23:01:20.660Z,16.40
2022-09-09T23:03:49.427Z,16.30
2022-09-09T23:06:23.423Z,16.70
2022-09-09T23:08:55.905Z,16.30
2022-09-09T23:11:28.050Z,18.40
2022-09-09T23:14:00.214Z,16.30
2022-09-09T23:16:39.523Z,16.30
2022-09-09T23:19:10.192Z,18.30
2022-09-09T23:21:39.433Z,16.30
2022-09-09T23:24:08.690Z,16.70
2022-09-09T23:26:35.570Z,16.20
2022-09-09T23:29:02.576Z,16.20
2022-09-09T23:31:37.872Z,16.20
2022-09-09T23:34:06.083Z,18.10
2022-09-09T23:36:33.737Z,16.20
2022-09-09T23:39:05.746Z,16.20
2022-09-09T23:41:35.292Z,16.10
2022-09-09T23:44:04.137Z,17.80
2022-09-09T23:46:33.287Z,16.10
2022-09-09T23:49:02.439Z,16.20
2022-09-09T23:51:31.885Z,16.10
2022-09-09T23:54:02.890Z,17.30
2022-09-09T23:56:41.330Z,16.20
2022-09-09T23:59:09.104Z,16.30
